sensor_id;sensor_type;location;lat;lon;timestamp;P1;durP1;ratioP1;P2;durP2;ratioP2
9729;SDS011;4904;49.152;11.004;2022-07-31T00:00:03;6.80;;;5.72;;
9729;SDS011;4904;49.152;11.004;2022-07-31T00:02:32;6.40;;;5.75;;
9729;SDS011;4904;49.152;11.004;2022-07-31T00:04:59;5.80;;;4.68;;
9729;SDS011;4904;49.152;11.004;2022-07-31T00:07:26;4.78;;;4.38;;
9729;SDS011;4904;49.152;11.004;2022-07-31T00:09:54;5.20;;;4.70;;
9729;SDS011;4904;49.152;11.004;2022-07-31T00:12:21;5.55;;;4.93;;
9729;SDS011;4904;49.152;11.004;2022-07-31T00:14:48;5.68;;;4.70;;
9729;SDS011;4904;49.152;11.004;2022-07-31T00:17:15;5.50;;;5.00;;
9729;SDS011;4904;49.152;11.004;2022-07-31T00:19:42;5.40;;;4.78;;
9729;SDS011;4904;49.152;11.004;2022-07-31T00:22:09;5.38;;;4.60;;
9729;SDS011;4904;49.152;11.004;2022-07-31T00:24:36;5.10;;;4.60;;
9729;SDS011;4904;49.152;11.004;2022-07-31T00:27:04;7.30;;;4.65;;
9729;SDS011;4904;49.152;11.004;2022-07-31T00:29:32;4.80;;;4.40;;
9729;SDS011;4904;49.152;11.004;2022-07-31T00:31:59;6.70;;;4.90;;
9729;SDS011;4904;49.152;11.004;2022-07-31T00:34:26;7.03;;;4.75;;
9729;SDS011;4904;49.152;11.004;2022-07-31T00:36:53;6.10;;;5.38;;
9729;SDS011;4904;49.152;11.004;2022-07-31T00:39:20;5.93;;;5.20;;
9729;SDS011;4904;49.152;11.004;2022-07-31T00:41:48;5.10;;;4.63;;
9729;SDS011;4904;49.152;11.004;2022-07-31T00:44:17;6.10;;;5.10;;
9729;SDS011;4904;49.152;11.004;2022-07-31T00:46:44;5.90;;;5.30;;
9729;SDS011;4904;49.152;11.004;2022-07-31T00:49:11;5.07;;;4.57;;
9729;SDS011;4904;49.152;11.004;2022-07-31T00:51:38;6.22;;;4.93;;
9729;SDS011;4904;49.152;11.004;2022-07-31T00:54:06;5.70;;;5.20;;
9729;SDS011;4904;49.152;11.004;2022-07-31T00:56:34;5.80;;;5.00;;
9729;SDS011;4904;49.152;11.004;2022-07-31T00:59:02;6.15;;;4.90;;
9729;SDS011;4904;49.152;11.004;2022-07-31T01:01:31;5.40;;;4.90;;
9729;SDS011;4904;49.152;11.004;2022-07-31T01:03:58;5.30;;;4.90;;
9729;SDS011;4904;49.152;11.004;2022-07-31T01:06:25;5.65;;;4.55;;
9729;SDS011;4904;49.152;11.004;2022-07-31T01:08:52;5.43;;;4.93;;
9729;SDS011;4904;49.152;11.004;2022-07-31T01:11:20;4.57;;;4.25;;
9729;SDS011;4904;49.152;11.004;2022-07-31T01:13:53;5.10;;;4.70;;
9729;SDS011;4904;49.152;11.004;2022-07-31T01:16:23;5.93;;;5.40;;
9729;SDS011;4904;49.152;11.004;2022-07-31T01:18:59;6.32;;;5.15;;
9729;SDS011;4904;49.152;11.004;2022-07-31T01:21:31;5.40;;;4.90;;
9729;SDS011;4904;49.152;11.004;2022-07-31T01:24:08;5.35;;;4.95;;
9729;SDS011;4904;49.152;11.004;2022-07-31T01:26:45;5.32;;;4.93;;
9729;SDS011;4904;49.152;11.004;2022-07-31T01:29:19;6.15;;;5.03;;
9729;SDS011;4904;49.152;11.004;2022-07-31T01:31:52;6.15;;;5.22;;
9729;SDS011;4904;49.152;11.004;2022-07-31T01:34:24;6.95;;;5.10;;
9729;SDS011;4904;49.152;11.004;2022-07-31T01:36:59;5.88;;;4.90;;
9729;SDS011;4904;49.152;11.004;2022-07-31T01:39:32;7.10;;;4.90;;
9729;SDS011;4904;49.152;11.004;2022-07-31T01:42:01;5.57;;;5.07;;
9729;SDS011;4904;49.152;11.004;2022-07-31T01:44:34;6.20;;;5.45;;
9729;SDS011;4904;49.152;11.004;2022-07-31T01:47:07;5.28;;;4.88;;
9729;SDS011;4904;49.152;11.004;2022-07-31T01:49:35;5.90;;;5.22;;
9729;SDS011;4904;49.152;11.004;2022-07-31T01:52:04;8.25;;;5.53;;
9729;SDS011;4904;49.152;11.004;2022-07-31T01:54:32;6.80;;;5.05;;
9729;SDS011;4904;49.152;11.004;2022-07-31T01:57:02;6.15;;;5.20;;
9729;SDS011;4904;49.152;11.004;2022-07-31T01:59:31;6.15;;;5.60;;
9729;SDS011;4904;49.152;11.004;2022-07-31T02:02:02;5.13;;;4.72;;
9729;SDS011;4904;49.152;11.004;2022-07-31T02:04:29;4.93;;;4.50;;
9729;SDS011;4904;49.152;11.004;2022-07-31T02:06:58;6.07;;;5.20;;
9729;SDS011;4904;49.152;11.004;2022-07-31T02:09:28;5.60;;;5.05;;
9729;SDS011;4904;49.152;11.004;2022-07-31T02:11:57;7.75;;;5.40;;
9729;SDS011;4904;49.152;11.004;2022-07-31T02:14:25;5.88;;;5.38;;
9729;SDS011;4904;49.152;11.004;2022-07-31T02:16:52;6.20;;;5.40;;
9729;SDS011;4904;49.152;11.004;2022-07-31T02:19:22;6.20;;;4.82;;
9729;SDS011;4904;49.152;11.004;2022-07-31T02:21:50;6.07;;;5.57;;
9729;SDS011;4904;49.152;11.004;2022-07-31T02:24:17;6.80;;;5.47;;
9729;SDS011;4904;49.152;11.004;2022-07-31T02:26:44;6.07;;;5.43;;
9729;SDS011;4904;49.152;11.004;2022-07-31T02:29:12;5.85;;;5.32;;
9729;SDS011;4904;49.152;11.004;2022-07-31T02:31:41;5.95;;;5.45;;
9729;SDS011;4904;49.152;11.004;2022-07-31T02:34:11;6.05;;;5.45;;
9729;SDS011;4904;49.152;11.004;2022-07-31T02:36:40;5.85;;;5.45;;
9729;SDS011;4904;49.152;11.004;2022-07-31T02:39:08;6.15;;;5.55;;
9729;SDS011;4904;49.152;11.004;2022-07-31T02:41:37;5.50;;;5.10;;
9729;SDS011;4904;49.152;11.004;2022-07-31T02:44:05;7.72;;;5.80;;
9729;SDS011;4904;49.152;11.004;2022-07-31T02:46:34;6.25;;;5.65;;
9729;SDS011;4904;49.152;11.004;2022-07-31T02:49:02;6.03;;;5.28;;
9729;SDS011;4904;49.152;11.004;2022-07-31T02:51:29;6.03;;;5.43;;
9729;SDS011;4904;49.152;11.004;2022-07-31T02:53:58;5.57;;;5.07;;
9729;SDS011;4904;49.152;11.004;2022-07-31T02:56:26;5.93;;;5.35;;
9729;SDS011;4904;49.152;11.004;2022-07-31T02:58:54;5.93;;;5.47;;
9729;SDS011;4904;49.152;11.004;2022-07-31T03:01:21;5.63;;;5.13;;
9729;SDS011;4904;49.152;11.004;2022-07-31T03:03:48;6.47;;;5.95;;
9729;SDS011;4904;49.152;11.004;2022-07-31T03:06:15;5.90;;;5.40;;
9729;SDS011;4904;49.152;11.004;2022-07-31T03:08:42;5.53;;;5.00;;
9729;SDS011;4904;49.152;11.004;2022-07-31T03:11:11;6.05;;;5.43;;
9729;SDS011;4904;49.152;11.004;2022-07-31T03:13:38;5.68;;;5.18;;
9729;SDS011;4904;49.152;11.004;2022-07-31T03:16:07;6.70;;;5.97;;
9729;SDS011;4904;49.152;11.004;2022-07-31T03:18:36;5.75;;;5.25;;
9729;SDS011;4904;49.152;11.004;2022-07-31T03:21:05;5.32;;;4.82;;
9729;SDS011;4904;49.152;11.004;2022-07-31T03:23:34;6.38;;;5.30;;
9729;SDS011;4904;49.152;11.004;2022-07-31T03:26:01;5.90;;;5.40;;
9729;SDS011;4904;49.152;11.004;2022-07-31T03:28:31;5.85;;;5.35;;
9729;SDS011;4904;49.152;11.004;2022-07-31T03:30:59;6.85;;;5.30;;
9729;SDS011;4904;49.152;11.004;2022-07-31T03:33:27;5.65;;;5.15;;
9729;SDS011;4904;49.152;11.004;2022-07-31T03:35:54;5.80;;;5.30;;
9729;SDS011;4904;49.152;11.004;2022-07-31T03:38:22;5.97;;;5.38;;
9729;SDS011;4904;49.152;11.004;2022-07-31T03:40:49;5.85;;;5.45;;
9729;SDS011;4904;49.152;11.004;2022-07-31T03:43:16;5.95;;;5.35;;
9729;SDS011;4904;49.152;11.004;2022-07-31T03:45:46;6.03;;;5.45;;
9729;SDS011;4904;49.152;11.004;2022-07-31T03:48:13;5.82;;;5.13;;
9729;SDS011;4904;49.152;11.004;2022-07-31T03:50:40;6.13;;;5.53;;
9729;SDS011;4904;49.152;11.004;2022-07-31T03:53:09;7.85;;;5.50;;
9729;SDS011;4904;49.152;11.004;2022-07-31T03:55:38;5.80;;;5.13;;
9729;SDS011;4904;49.152;11.004;2022-07-31T03:58:07;6.00;;;5.40;;
9729;SDS011;4904;49.152;11.004;2022-07-31T04:00:35;7.07;;;5.20;;
9729;SDS011;4904;49.152;11.004;2022-07-31T04:03:05;7.65;;;5.57;;
9729;SDS011;4904;49.152;11.004;2022-07-31T04:05:34;5.60;;;5.07;;
9729;SDS011;4904;49.152;11.004;2022-07-31T04:08:01;6.05;;;5.50;;
9729;SDS011;4904;49.152;11.004;2022-07-31T04:10:28;7.32;;;4.95;;
9729;SDS011;4904;49.152;11.004;2022-07-31T04:12:55;5.32;;;4.88;;
9729;SDS011;4904;49.152;11.004;2022-07-31T04:15:22;6.22;;;5.45;;
9729;SDS011;4904;49.152;11.004;2022-07-31T04:17:49;5.88;;;5.38;;
9729;SDS011;4904;49.152;11.004;2022-07-31T04:20:18;5.70;;;5.13;;
9729;SDS011;4904;49.152;11.004;2022-07-31T04:22:45;5.53;;;4.82;;
9729;SDS011;4904;49.152;11.004;2022-07-31T04:25:14;6.10;;;5.50;;
9729;SDS011;4904;49.152;11.004;2022-07-31T04:27:41;5.70;;;5.22;;
9729;SDS011;4904;49.152;11.004;2022-07-31T04:30:09;7.55;;;5.50;;
9729;SDS011;4904;49.152;11.004;2022-07-31T04:32:39;5.50;;;5.00;;
9729;SDS011;4904;49.152;11.004;2022-07-31T04:35:07;6.10;;;5.60;;
9729;SDS011;4904;49.152;11.004;2022-07-31T04:37:36;7.10;;;5.20;;
9729;SDS011;4904;49.152;11.004;2022-07-31T04:40:04;6.78;;;5.55;;
9729;SDS011;4904;49.152;11.004;2022-07-31T04:42:32;5.90;;;5.28;;
9729;SDS011;4904;49.152;11.004;2022-07-31T04:44:59;5.60;;;5.10;;
9729;SDS011;4904;49.152;11.004;2022-07-31T04:47:26;6.32;;;5.72;;
9729;SDS011;4904;49.152;11.004;2022-07-31T04:49:53;6.10;;;5.50;;
9729;SDS011;4904;49.152;11.004;2022-07-31T04:52:20;5.93;;;5.32;;
9729;SDS011;4904;49.152;11.004;2022-07-31T04:54:48;7.47;;;5.75;;
9729;SDS011;4904;49.152;11.004;2022-07-31T04:57:15;6.00;;;5.35;;
9729;SDS011;4904;49.152;11.004;2022-07-31T04:59:42;7.30;;;5.95;;
9729;SDS011;4904;49.152;11.004;2022-07-31T05:02:09;9.70;;;8.80;;
9729;SDS011;4904;49.152;11.004;2022-07-31T05:04:36;7.40;;;6.68;;
9729;SDS011;4904;49.152;11.004;2022-07-31T05:07:03;8.55;;;5.82;;
9729;SDS011;4904;49.152;11.004;2022-07-31T05:09:30;6.65;;;6.00;;
9729;SDS011;4904;49.152;11.004;2022-07-31T05:12:00;5.57;;;4.93;;
9729;SDS011;4904;49.152;11.004;2022-07-31T05:14:27;5.47;;;5.05;;
9729;SDS011;4904;49.152;11.004;2022-07-31T05:16:54;5.60;;;5.10;;
9729;SDS011;4904;49.152;11.004;2022-07-31T05:19:21;5.20;;;4.78;;
9729;SDS011;4904;49.152;11.004;2022-07-31T05:21:53;6.60;;;5.90;;
9729;SDS011;4904;49.152;11.004;2022-07-31T05:24:21;6.03;;;5.43;;
9729;SDS011;4904;49.152;11.004;2022-07-31T05:26:49;5.47;;;4.97;;
9729;SDS011;4904;49.152;11.004;2022-07-31T05:29:17;5.55;;;4.95;;
9729;SDS011;4904;49.152;11.004;2022-07-31T05:31:44;6.32;;;5.47;;
9729;SDS011;4904;49.152;11.004;2022-07-31T05:34:11;6.28;;;5.00;;
9729;SDS011;4904;49.152;11.004;2022-07-31T05:36:38;5.78;;;5.20;;
9729;SDS011;4904;49.152;11.004;2022-07-31T05:39:05;5.78;;;5.00;;
9729;SDS011;4904;49.152;11.004;2022-07-31T05:41:33;5.80;;;5.22;;
9729;SDS011;4904;49.152;11.004;2022-07-31T05:44:00;5.72;;;4.90;;
9729;SDS011;4904;49.152;11.004;2022-07-31T05:46:29;5.28;;;4.70;;
9729;SDS011;4904;49.152;11.004;2022-07-31T05:48:56;5.13;;;4.53;;
9729;SDS011;4904;49.152;11.004;2022-07-31T05:51:23;7.43;;;6.13;;
9729;SDS011;4904;49.152;11.004;2022-07-31T05:53:50;5.57;;;5.07;;
9729;SDS011;4904;49.152;11.004;2022-07-31T05:56:17;6.10;;;4.90;;
9729;SDS011;4904;49.152;11.004;2022-07-31T05:58:44;5.03;;;4.57;;
9729;SDS011;4904;49.152;11.004;2022-07-31T06:01:11;5.15;;;4.57;;
9729;SDS011;4904;49.152;11.004;2022-07-31T06:03:39;5.85;;;5.07;;
9729;SDS011;4904;49.152;11.004;2022-07-31T06:06:06;4.85;;;4.47;;
9729;SDS011;4904;49.152;11.004;2022-07-31T06:08:33;5.18;;;4.78;;
9729;SDS011;4904;49.152;11.004;2022-07-31T06:11:00;4.93;;;4.40;;
9729;SDS011;4904;49.152;11.004;2022-07-31T06:13:27;4.78;;;4.30;;
9729;SDS011;4904;49.152;11.004;2022-07-31T06:15:55;5.90;;;4.63;;
9729;SDS011;4904;49.152;11.004;2022-07-31T06:18:22;5.38;;;4.78;;
9729;SDS011;4904;49.152;11.004;2022-07-31T06:20:50;7.13;;;4.68;;
9729;SDS011;4904;49.152;11.004;2022-07-31T06:23:17;5.25;;;4.85;;
9729;SDS011;4904;49.152;11.004;2022-07-31T06:25:44;4.68;;;4.28;;
9729;SDS011;4904;49.152;11.004;2022-07-31T06:28:11;4.35;;;3.95;;
9729;SDS011;4904;49.152;11.004;2022-07-31T06:30:39;4.43;;;4.03;;
9729;SDS011;4904;49.152;11.004;2022-07-31T06:33:06;5.00;;;4.20;;
9729;SDS011;4904;49.152;11.004;2022-07-31T06:35:33;6.07;;;4.15;;
9729;SDS011;4904;49.152;11.004;2022-07-31T06:38:01;4.38;;;3.97;;
9729;SDS011;4904;49.152;11.004;2022-07-31T06:40:28;5.80;;;3.97;;
9729;SDS011;4904;49.152;11.004;2022-07-31T06:42:55;5.20;;;3.50;;
9729;SDS011;4904;49.152;11.004;2022-07-31T06:45:22;4.22;;;3.88;;
9729;SDS011;4904;49.152;11.004;2022-07-31T06:47:49;4.57;;;4.18;;
9729;SDS011;4904;49.152;11.004;2022-07-31T06:50:16;4.45;;;4.05;;
9729;SDS011;4904;49.152;11.004;2022-07-31T06:52:43;4.30;;;3.90;;
9729;SDS011;4904;49.152;11.004;2022-07-31T06:55:12;4.25;;;3.88;;
9729;SDS011;4904;49.152;11.004;2022-07-31T06:57:39;5.25;;;4.10;;
9729;SDS011;4904;49.152;11.004;2022-07-31T07:00:06;4.07;;;3.70;;
9729;SDS011;4904;49.152;11.004;2022-07-31T07:02:34;5.43;;;4.03;;
9729;SDS011;4904;49.152;11.004;2022-07-31T07:05:02;6.55;;;4.82;;
9729;SDS011;4904;49.152;11.004;2022-07-31T07:07:30;4.75;;;4.13;;
9729;SDS011;4904;49.152;11.004;2022-07-31T07:09:59;4.47;;;4.07;;
9729;SDS011;4904;49.152;11.004;2022-07-31T07:12:28;4.82;;;3.90;;
9729;SDS011;4904;49.152;11.004;2022-07-31T07:14:55;4.07;;;3.63;;
9729;SDS011;4904;49.152;11.004;2022-07-31T07:17:23;4.75;;;3.85;;
9729;SDS011;4904;49.152;11.004;2022-07-31T07:19:50;4.95;;;4.43;;
9729;SDS011;4904;49.152;11.004;2022-07-31T07:22:17;3.95;;;3.50;;
9729;SDS011;4904;49.152;11.004;2022-07-31T07:24:44;3.80;;;3.50;;
9729;SDS011;4904;49.152;11.004;2022-07-31T07:27:11;5.13;;;3.67;;
9729;SDS011;4904;49.152;11.004;2022-07-31T07:29:39;4.57;;;3.95;;
9729;SDS011;4904;49.152;11.004;2022-07-31T07:32:06;4.00;;;3.70;;
9729;SDS011;4904;49.152;11.004;2022-07-31T07:34:34;4.97;;;3.70;;
9729;SDS011;4904;49.152;11.004;2022-07-31T07:37:01;3.78;;;3.47;;
9729;SDS011;4904;49.152;11.004;2022-07-31T07:39:28;5.72;;;4.03;;
9729;SDS011;4904;49.152;11.004;2022-07-31T07:41:56;4.30;;;3.88;;
9729;SDS011;4904;49.152;11.004;2022-07-31T07:44:23;5.57;;;3.28;;
9729;SDS011;4904;49.152;11.004;2022-07-31T07:46:51;3.78;;;3.47;;
9729;SDS011;4904;49.152;11.004;2022-07-31T07:49:18;3.15;;;2.95;;
9729;SDS011;4904;49.152;11.004;2022-07-31T07:51:45;7.65;;;3.63;;
9729;SDS011;4904;49.152;11.004;2022-07-31T07:54:12;5.53;;;3.72;;
9729;SDS011;4904;49.152;11.004;2022-07-31T07:56:40;3.70;;;3.30;;
9729;SDS011;4904;49.152;11.004;2022-07-31T07:59:09;3.92;;;3.40;;
9729;SDS011;4904;49.152;11.004;2022-07-31T08:01:36;3.45;;;3.15;;
9729;SDS011;4904;49.152;11.004;2022-07-31T08:04:04;3.47;;;3.17;;
9729;SDS011;4904;49.152;11.004;2022-07-31T08:06:31;4.43;;;3.00;;
9729;SDS011;4904;49.152;11.004;2022-07-31T08:08:59;5.50;;;3.50;;
9729;SDS011;4904;49.152;11.004;2022-07-31T08:11:26;4.43;;;3.45;;
9729;SDS011;4904;49.152;11.004;2022-07-31T08:13:53;3.63;;;3.33;;
9729;SDS011;4904;49.152;11.004;2022-07-31T08:16:20;3.30;;;3.10;;
9729;SDS011;4904;49.152;11.004;2022-07-31T08:18:48;5.03;;;3.40;;
9729;SDS011;4904;49.152;11.004;2022-07-31T08:21:17;3.42;;;3.17;;
9729;SDS011;4904;49.152;11.004;2022-07-31T08:23:44;4.82;;;3.05;;
9729;SDS011;4904;49.152;11.004;2022-07-31T08:26:11;3.53;;;3.20;;
9729;SDS011;4904;49.152;11.004;2022-07-31T08:28:38;3.25;;;3.00;;
9729;SDS011;4904;49.152;11.004;2022-07-31T08:31:06;3.35;;;2.78;;
9729;SDS011;4904;49.152;11.004;2022-07-31T08:33:33;2.88;;;2.60;;
9729;SDS011;4904;49.152;11.004;2022-07-31T08:35:59;5.00;;;3.25;;
9729;SDS011;4904;49.152;11.004;2022-07-31T08:38:28;3.60;;;3.30;;
9729;SDS011;4904;49.152;11.004;2022-07-31T08:40:55;3.85;;;2.70;;
9729;SDS011;4904;49.152;11.004;2022-07-31T08:43:22;2.60;;;2.40;;
9729;SDS011;4904;49.152;11.004;2022-07-31T08:45:49;2.30;;;2.20;;
9729;SDS011;4904;49.152;11.004;2022-07-31T08:48:17;2.80;;;2.60;;
9729;SDS011;4904;49.152;11.004;2022-07-31T08:50:48;2.75;;;2.50;;
9729;SDS011;4904;49.152;11.004;2022-07-31T08:53:17;2.95;;;2.63;;
9729;SDS011;4904;49.152;11.004;2022-07-31T08:55:49;2.95;;;2.70;;
9729;SDS011;4904;49.152;11.004;2022-07-31T08:58:17;3.85;;;2.28;;
9729;SDS011;4904;49.152;11.004;2022-07-31T09:00:45;3.05;;;2.67;;
9729;SDS011;4904;49.152;11.004;2022-07-31T09:03:12;4.40;;;2.20;;
9729;SDS011;4904;49.152;11.004;2022-07-31T09:05:39;2.00;;;1.90;;
9729;SDS011;4904;49.152;11.004;2022-07-31T09:08:06;3.78;;;2.28;;
9729;SDS011;4904;49.152;11.004;2022-07-31T09:10:33;2.33;;;2.13;;
9729;SDS011;4904;49.152;11.004;2022-07-31T09:13:10;3.65;;;2.40;;
9729;SDS011;4904;49.152;11.004;2022-07-31T09:15:38;4.72;;;2.70;;
9729;SDS011;4904;49.152;11.004;2022-07-31T09:18:13;4.00;;;2.15;;
9729;SDS011;4904;49.152;11.004;2022-07-31T09:20:45;3.08;;;2.00;;
9729;SDS011;4904;49.152;11.004;2022-07-31T09:23:20;2.15;;;2.00;;
9729;SDS011;4904;49.152;11.004;2022-07-31T09:25:51;2.35;;;2.17;;
9729;SDS011;4904;49.152;11.004;2022-07-31T09:28:29;2.40;;;2.20;;
9729;SDS011;4904;49.152;11.004;2022-07-31T09:30:57;2.58;;;1.92;;
9729;SDS011;4904;49.152;11.004;2022-07-31T09:33:25;2.90;;;2.10;;
9729;SDS011;4904;49.152;11.004;2022-07-31T09:35:55;2.83;;;1.88;;
9729;SDS011;4904;49.152;11.004;2022-07-31T09:38:28;3.00;;;2.30;;
9729;SDS011;4904;49.152;11.004;2022-07-31T09:41:06;3.75;;;2.45;;
9729;SDS011;4904;49.152;11.004;2022-07-31T09:43:36;3.47;;;2.20;;
9729;SDS011;4904;49.152;11.004;2022-07-31T09:46:04;4.78;;;2.60;;
9729;SDS011;4904;49.152;11.004;2022-07-31T09:48:32;2.95;;;2.40;;
9729;SDS011;4904;49.152;11.004;2022-07-31T09:51:00;2.58;;;2.38;;
9729;SDS011;4904;49.152;11.004;2022-07-31T09:53:37;2.30;;;2.00;;
9729;SDS011;4904;49.152;11.004;2022-07-31T09:56:05;2.00;;;1.80;;
9729;SDS011;4904;49.152;11.004;2022-07-31T09:58:37;4.03;;;1.70;;
9729;SDS011;4904;49.152;11.004;2022-07-31T10:01:07;1.65;;;1.55;;
9729;SDS011;4904;49.152;11.004;2022-07-31T10:03:37;3.17;;;1.92;;
9729;SDS011;4904;49.152;11.004;2022-07-31T10:06:05;1.70;;;1.60;;
9729;SDS011;4904;49.152;11.004;2022-07-31T10:08:36;2.00;;;1.83;;
9729;SDS011;4904;49.152;11.004;2022-07-31T10:11:05;2.10;;;1.90;;
9729;SDS011;4904;49.152;11.004;2022-07-31T10:13:34;1.70;;;1.60;;
9729;SDS011;4904;49.152;11.004;2022-07-31T10:16:04;2.55;;;1.85;;
9729;SDS011;4904;49.152;11.004;2022-07-31T10:18:36;2.42;;;1.73;;
9729;SDS011;4904;49.152;11.004;2022-07-31T10:21:08;2.00;;;1.80;;
9729;SDS011;4904;49.152;11.004;2022-07-31T10:23:38;2.47;;;1.90;;
9729;SDS011;4904;49.152;11.004;2022-07-31T10:26:07;2.13;;;1.90;;
9729;SDS011;4904;49.152;11.004;2022-07-31T10:28:36;1.70;;;1.60;;
9729;SDS011;4904;49.152;11.004;2022-07-31T10:31:05;2.05;;;1.90;;
9729;SDS011;4904;49.152;11.004;2022-07-31T10:33:33;2.42;;;1.77;;
9729;SDS011;4904;49.152;11.004;2022-07-31T10:36:02;2.42;;;2.13;;
9729;SDS011;4904;49.152;11.004;2022-07-31T10:38:33;1.90;;;1.80;;
9729;SDS011;4904;49.152;11.004;2022-07-31T10:41:16;1.83;;;1.70;;
9729;SDS011;4904;49.152;11.004;2022-07-31T10:43:50;2.05;;;1.80;;
9729;SDS011;4904;49.152;11.004;2022-07-31T10:46:26;1.95;;;1.80;;
9729;SDS011;4904;49.152;11.004;2022-07-31T10:48:55;1.80;;;1.70;;
9729;SDS011;4904;49.152;11.004;2022-07-31T10:51:22;1.98;;;1.80;;
9729;SDS011;4904;49.152;11.004;2022-07-31T10:53:54;2.88;;;1.70;;
9729;SDS011;4904;49.152;11.004;2022-07-31T10:56:23;2.67;;;1.80;;
9729;SDS011;4904;49.152;11.004;2022-07-31T10:58:51;2.40;;;2.00;;
9729;SDS011;4904;49.152;11.004;2022-07-31T11:01:19;3.78;;;2.05;;
9729;SDS011;4904;49.152;11.004;2022-07-31T11:03:51;2.13;;;1.65;;
9729;SDS011;4904;49.152;11.004;2022-07-31T11:06:20;2.65;;;1.75;;
9729;SDS011;4904;49.152;11.004;2022-07-31T11:08:49;3.83;;;1.95;;
9729;SDS011;4904;49.152;11.004;2022-07-31T11:11:29;1.83;;;1.73;;
9729;SDS011;4904;49.152;11.004;2022-07-31T11:13:57;2.15;;;1.88;;
9729;SDS011;4904;49.152;11.004;2022-07-31T11:16:24;1.85;;;1.75;;
9729;SDS011;4904;49.152;11.004;2022-07-31T11:18:56;3.47;;;2.00;;
9729;SDS011;4904;49.152;11.004;2022-07-31T11:21:31;4.38;;;2.00;;
9729;SDS011;4904;49.152;11.004;2022-07-31T11:24:10;3.72;;;2.13;;
9729;SDS011;4904;49.152;11.004;2022-07-31T11:26:40;2.53;;;2.10;;
9729;SDS011;4904;49.152;11.004;2022-07-31T11:29:08;2.30;;;2.10;;
9729;SDS011;4904;49.152;11.004;2022-07-31T11:31:35;1.90;;;1.70;;
9729;SDS011;4904;49.152;11.004;2022-07-31T11:34:04;3.40;;;1.80;;
9729;SDS011;4904;49.152;11.004;2022-07-31T11:36:31;2.47;;;2.30;;
9729;SDS011;4904;49.152;11.004;2022-07-31T11:38:58;2.00;;;1.80;;
9729;SDS011;4904;49.152;11.004;2022-07-31T11:41:26;4.05;;;2.30;;
9729;SDS011;4904;49.152;11.004;2022-07-31T11:43:54;3.03;;;2.13;;
9729;SDS011;4904;49.152;11.004;2022-07-31T11:46:25;1.70;;;1.60;;
9729;SDS011;4904;49.152;11.004;2022-07-31T11:48:53;3.40;;;1.80;;
9729;SDS011;4904;49.152;11.004;2022-07-31T11:51:22;1.92;;;1.58;;
9729;SDS011;4904;49.152;11.004;2022-07-31T11:53:50;1.90;;;1.80;;
9729;SDS011;4904;49.152;11.004;2022-07-31T11:56:19;2.10;;;1.90;;
9729;SDS011;4904;49.152;11.004;2022-07-31T11:58:46;3.35;;;1.95;;
9729;SDS011;4904;49.152;11.004;2022-07-31T12:01:14;2.03;;;1.90;;
9729;SDS011;4904;49.152;11.004;2022-07-31T12:03:43;2.13;;;1.92;;
9729;SDS011;4904;49.152;11.004;2022-07-31T12:06:11;3.08;;;1.75;;
9729;SDS011;4904;49.152;11.004;2022-07-31T12:08:45;2.50;;;1.65;;
9729;SDS011;4904;49.152;11.004;2022-07-31T12:11:12;2.08;;;1.63;;
9729;SDS011;4904;49.152;11.004;2022-07-31T12:13:43;1.52;;;1.30;;
9729;SDS011;4904;49.152;11.004;2022-07-31T12:16:11;1.85;;;1.75;;
9729;SDS011;4904;49.152;11.004;2022-07-31T12:18:44;2.50;;;2.10;;
9729;SDS011;4904;49.152;11.004;2022-07-31T12:21:13;3.05;;;1.83;;
9729;SDS011;4904;49.152;11.004;2022-07-31T12:23:41;2.92;;;1.83;;
9729;SDS011;4904;49.152;11.004;2022-07-31T12:26:12;2.00;;;1.75;;
9729;SDS011;4904;49.152;11.004;2022-07-31T12:28:54;1.83;;;1.63;;
9729;SDS011;4904;49.152;11.004;2022-07-31T12:31:22;2.28;;;2.03;;
9729;SDS011;4904;49.152;11.004;2022-07-31T12:33:49;1.70;;;1.60;;
9729;SDS011;4904;49.152;11.004;2022-07-31T12:36:16;1.73;;;1.63;;
9729;SDS011;4904;49.152;11.004;2022-07-31T12:38:44;1.50;;;1.38;;
9729;SDS011;4904;49.152;11.004;2022-07-31T12:41:12;2.22;;;1.88;;
9729;SDS011;4904;49.152;11.004;2022-07-31T12:43:39;1.77;;;1.67;;
9729;SDS011;4904;49.152;11.004;2022-07-31T12:46:06;2.85;;;1.90;;
9729;SDS011;4904;49.152;11.004;2022-07-31T12:48:33;1.80;;;1.55;;
9729;SDS011;4904;49.152;11.004;2022-07-31T12:51:00;1.77;;;1.67;;
9729;SDS011;4904;49.152;11.004;2022-07-31T12:53:27;1.73;;;1.63;;
9729;SDS011;4904;49.152;11.004;2022-07-31T12:55:56;2.08;;;1.80;;
9729;SDS011;4904;49.152;11.004;2022-07-31T12:58:23;3.20;;;1.70;;
9729;SDS011;4904;49.152;11.004;2022-07-31T13:00:50;4.35;;;1.73;;
9729;SDS011;4904;49.152;11.004;2022-07-31T13:03:18;1.83;;;1.67;;
9729;SDS011;4904;49.152;11.004;2022-07-31T13:05:46;1.80;;;1.70;;
9729;SDS011;4904;49.152;11.004;2022-07-31T13:08:13;3.95;;;1.60;;
9729;SDS011;4904;49.152;11.004;2022-07-31T13:10:40;1.90;;;1.80;;
9729;SDS011;4904;49.152;11.004;2022-07-31T13:13:08;1.90;;;1.80;;
9729;SDS011;4904;49.152;11.004;2022-07-31T13:15:35;2.55;;;1.92;;
9729;SDS011;4904;49.152;11.004;2022-07-31T13:18:02;3.00;;;1.73;;
9729;SDS011;4904;49.152;11.004;2022-07-31T13:20:36;2.03;;;1.77;;
9729;SDS011;4904;49.152;11.004;2022-07-31T13:23:03;2.13;;;2.00;;
9729;SDS011;4904;49.152;11.004;2022-07-31T13:25:30;3.80;;;1.80;;
9729;SDS011;4904;49.152;11.004;2022-07-31T13:27:57;3.05;;;1.65;;
9729;SDS011;4904;49.152;11.004;2022-07-31T13:30:26;2.03;;;1.75;;
9729;SDS011;4904;49.152;11.004;2022-07-31T13:32:53;1.83;;;1.73;;
9729;SDS011;4904;49.152;11.004;2022-07-31T13:35:20;3.28;;;1.67;;
9729;SDS011;4904;49.152;11.004;2022-07-31T13:37:50;3.42;;;1.95;;
9729;SDS011;4904;49.152;11.004;2022-07-31T13:40:17;1.80;;;1.70;;
9729;SDS011;4904;49.152;11.004;2022-07-31T13:43:04;2.35;;;2.15;;
9729;SDS011;4904;49.152;11.004;2022-07-31T13:45:32;1.95;;;1.80;;
9729;SDS011;4904;49.152;11.004;2022-07-31T13:47:59;2.65;;;2.00;;
9729;SDS011;4904;49.152;11.004;2022-07-31T13:50:26;1.98;;;1.85;;
9729;SDS011;4904;49.152;11.004;2022-07-31T13:52:53;2.67;;;1.67;;
9729;SDS011;4904;49.152;11.004;2022-07-31T13:55:21;1.95;;;1.75;;
9729;SDS011;4904;49.152;11.004;2022-07-31T13:57:48;1.80;;;1.70;;
9729;SDS011;4904;49.152;11.004;2022-07-31T14:00:15;2.00;;;1.90;;
9729;SDS011;4904;49.152;11.004;2022-07-31T14:02:44;2.38;;;1.92;;
9729;SDS011;4904;49.152;11.004;2022-07-31T14:05:13;3.20;;;1.80;;
9729;SDS011;4904;49.152;11.004;2022-07-31T14:07:40;2.15;;;1.95;;
9729;SDS011;4904;49.152;11.004;2022-07-31T14:10:07;1.75;;;1.65;;
9729;SDS011;4904;49.152;11.004;2022-07-31T14:12:35;1.80;;;1.70;;
9729;SDS011;4904;49.152;11.004;2022-07-31T14:15:03;2.72;;;1.90;;
9729;SDS011;4904;49.152;11.004;2022-07-31T14:17:31;2.78;;;1.80;;
9729;SDS011;4904;49.152;11.004;2022-07-31T14:20:00;1.98;;;1.73;;
9729;SDS011;4904;49.152;11.004;2022-07-31T14:22:27;3.10;;;1.90;;
9729;SDS011;4904;49.152;11.004;2022-07-31T14:24:55;2.08;;;1.88;;
9729;SDS011;4904;49.152;11.004;2022-07-31T14:27:22;2.50;;;1.67;;
9729;SDS011;4904;49.152;11.004;2022-07-31T14:29:48;2.05;;;1.70;;
9729;SDS011;4904;49.152;11.004;2022-07-31T14:32:15;2.17;;;1.70;;
9729;SDS011;4904;49.152;11.004;2022-07-31T14:34:43;2.75;;;1.50;;
9729;SDS011;4904;49.152;11.004;2022-07-31T14:37:11;2.10;;;1.88;;
9729;SDS011;4904;49.152;11.004;2022-07-31T14:39:38;1.88;;;1.77;;
9729;SDS011;4904;49.152;11.004;2022-07-31T14:42:05;2.85;;;1.77;;
9729;SDS011;4904;49.152;11.004;2022-07-31T14:44:32;1.95;;;1.70;;
9729;SDS011;4904;49.152;11.004;2022-07-31T14:46:59;1.85;;;1.75;;
9729;SDS011;4904;49.152;11.004;2022-07-31T14:49:26;2.67;;;1.83;;
9729;SDS011;4904;49.152;11.004;2022-07-31T14:51:53;2.05;;;1.85;;
9729;SDS011;4904;49.152;11.004;2022-07-31T14:54:21;2.05;;;1.60;;
9729;SDS011;4904;49.152;11.004;2022-07-31T14:56:48;2.17;;;1.98;;
9729;SDS011;4904;49.152;11.004;2022-07-31T14:59:15;2.95;;;1.90;;
9729;SDS011;4904;49.152;11.004;2022-07-31T15:01:42;2.58;;;1.70;;
9729;SDS011;4904;49.152;11.004;2022-07-31T15:04:09;3.00;;;1.80;;
9729;SDS011;4904;49.152;11.004;2022-07-31T15:06:36;3.40;;;1.80;;